sensor_id;sensor_type;location;lat;lon;timestamp;pressure;altitude;pressure_sealevel;temperature;humidity
61337;BME280;47212;41.326;2.104;2022-07-09T00:02:02;102041.28;;;25.72;54.88
61337;BME280;47212;41.326;2.104;2022-07-09T00:07:04;102043.44;;;25.66;54.94
61337;BME280;47212;41.326;2.104;2022-07-09T00:12:11;102036.38;;;25.60;55.05
61337;BME280;47212;41.326;2.104;2022-07-09T00:17:13;102038.53;;;25.55;54.97
61337;BME280;47212;41.326;2.104;2022-07-09T00:22:15;102034.28;;;25.49;55.12
61337;BME280;47212;41.326;2.104;2022-07-09T00:27:17;102042.81;;;25.44;55.57
61337;BME280;47212;41.326;2.104;2022-07-09T00:32:20;102037.91;;;25.40;55.47
61337;BME280;47212;41.326;2.104;2022-07-09T00:37:22;102033.00;;;25.37;55.45
61337;BME280;47212;41.326;2.104;2022-07-09T00:42:49;102035.31;;;25.35;55.44
61337;BME280;47212;41.326;2.104;2022-07-09T00:47:51;102028.09;;;25.34;55.36
61337;BME280;47212;41.326;2.104;2022-07-09T00:52:54;102030.41;;;25.32;54.84
61337;BME280;47212;41.326;2.104;2022-07-09T00:57:56;102039.41;;;25.29;55.12
61337;BME280;47212;41.326;2.104;2022-07-09T01:05:23;102031.22;;;25.24;54.92
61337;BME280;47212;41.326;2.104;2022-07-09T01:10:25;102021.91;;;25.20;55.11
61337;BME280;47212;41.326;2.104;2022-07-09T01:15:27;102027.31;;;25.17;54.51
61337;BME280;47212;41.326;2.104;2022-07-09T01:20:30;102029.09;;;25.13;54.11
61337;BME280;47212;41.326;2.104;2022-07-09T01:25:38;102023.34;;;25.09;53.28
61337;BME280;47212;41.326;2.104;2022-07-09T01:30:41;102025.97;;;25.05;53.65
61337;BME280;47212;41.326;2.104;2022-07-09T01:35:43;102027.47;;;25.03;53.36
61337;BME280;47212;41.326;2.104;2022-07-09T01:40:45;102021.41;;;25.01;53.22
61337;BME280;47212;41.326;2.104;2022-07-09T01:45:47;102025.97;;;24.97;53.22
61337;BME280;47212;41.326;2.104;2022-07-09T01:50:50;102023.50;;;24.95;53.22
61337;BME280;47212;41.326;2.104;2022-07-09T01:55:52;102022.84;;;24.90;53.08
61337;BME280;47212;41.326;2.104;2022-07-09T02:00:54;102024.66;;;24.86;53.01
61337;BME280;47212;41.326;2.104;2022-07-09T02:05:56;102021.72;;;24.82;52.77
61337;BME280;47212;41.326;2.104;2022-07-09T02:10:58;102018.28;;;24.76;52.93
61337;BME280;47212;41.326;2.104;2022-07-09T02:16:01;102014.00;;;24.70;53.19
61337;BME280;47212;41.326;2.104;2022-07-09T02:21:04;102016.31;;;24.68;53.14
61337;BME280;47212;41.326;2.104;2022-07-09T02:26:07;102009.75;;;24.64;53.24
61337;BME280;47212;41.326;2.104;2022-07-09T02:31:09;101999.28;;;24.61;53.25
61337;BME280;47212;41.326;2.104;2022-07-09T02:36:11;101998.28;;;24.57;53.31
61337;BME280;47212;41.326;2.104;2022-07-09T02:41:13;101998.94;;;24.54;53.06
61337;BME280;47212;41.326;2.104;2022-07-09T02:46:18;102005.81;;;24.48;52.87
61337;BME280;47212;41.326;2.104;2022-07-09T02:51:20;101994.34;;;24.41;53.12
61337;BME280;47212;41.326;2.104;2022-07-09T02:56:22;101999.09;;;24.32;53.15
61337;BME280;47212;41.326;2.104;2022-07-09T03:01:50;101998.69;;;24.25;52.70
61337;BME280;47212;41.326;2.104;2022-07-09T03:07:27;101999.66;;;24.20;52.74
61337;BME280;47212;41.326;2.104;2022-07-09T03:12:30;102006.69;;;24.18;53.61
61337;BME280;47212;41.326;2.104;2022-07-09T03:17:32;101999.31;;;24.13;53.98
61337;BME280;47212;41.326;2.104;2022-07-09T03:22:39;102004.72;;;24.09;53.86
61337;BME280;47212;41.326;2.104;2022-07-09T03:28:12;101994.22;;;24.06;53.84
61337;BME280;47212;41.326;2.104;2022-07-09T03:33:14;102002.91;;;24.05;53.50
61337;BME280;47212;41.326;2.104;2022-07-09T03:38:16;101998.81;;;24.02;53.19
61337;BME280;47212;41.326;2.104;2022-07-09T03:43:22;102002.72;;;24.01;53.62
61337;BME280;47212;41.326;2.104;2022-07-09T03:48:24;101996.34;;;24.01;53.41
61337;BME280;47212;41.326;2.104;2022-07-09T03:53:26;101999.13;;;24.01;53.34
61337;BME280;47212;41.326;2.104;2022-07-09T03:58:28;101997.81;;;23.98;53.19
61337;BME280;47212;41.326;2.104;2022-07-09T04:03:30;101989.47;;;23.98;53.03
61337;BME280;47212;41.326;2.104;2022-07-09T04:08:32;101996.16;;;23.97;53.37
61337;BME280;47212;41.326;2.104;2022-07-09T04:13:35;101995.34;;;23.97;53.45
61337;BME280;47212;41.326;2.104;2022-07-09T04:18:37;101996.31;;;23.92;53.08
61337;BME280;47212;41.326;2.104;2022-07-09T04:23:45;101985.03;;;23.89;52.98
61337;BME280;47212;41.326;2.104;2022-07-09T04:28:47;101980.91;;;23.86;53.31
61337;BME280;47212;41.326;2.104;2022-07-09T04:33:54;101983.22;;;23.84;53.48
61337;BME280;47212;41.326;2.104;2022-07-09T04:38:56;101982.53;;;23.78;53.12
61337;BME280;47212;41.326;2.104;2022-07-09T04:43:58;101982.34;;;23.75;53.22
61337;BME280;47212;41.326;2.104;2022-07-09T04:49:00;101988.06;;;23.70;53.14
61337;BME280;47212;41.326;2.104;2022-07-09T04:54:02;101988.19;;;23.65;53.55
61337;BME280;47212;41.326;2.104;2022-07-09T04:59:04;101993.25;;;23.63;53.50
61337;BME280;47212;41.326;2.104;2022-07-09T05:04:07;101986.56;;;23.64;53.39
61337;BME280;47212;41.326;2.104;2022-07-09T05:09:09;101988.19;;;23.65;53.94
61337;BME280;47212;41.326;2.104;2022-07-09T05:14:11;101991.47;;;23.67;53.66
61337;BME280;47212;41.326;2.104;2022-07-09T05:19:14;101993.94;;;23.68;53.81
61337;BME280;47212;41.326;2.104;2022-07-09T05:24:16;102004.91;;;23.73;54.01
61337;BME280;47212;41.326;2.104;2022-07-09T05:29:18;101997.25;;;23.79;53.86
61337;BME280;47212;41.326;2.104;2022-07-09T05:34:20;101996.59;;;23.82;54.09
61337;BME280;47212;41.326;2.104;2022-07-09T05:39:22;101997.94;;;23.85;54.07
61337;BME280;47212;41.326;2.104;2022-07-09T05:44:24;101989.25;;;23.86;54.23
61337;BME280;47212;41.326;2.104;2022-07-09T05:49:27;101989.25;;;23.86;54.11
61337;BME280;47212;41.326;2.104;2022-07-09T05:54:29;101993.69;;;23.87;54.46
61337;BME280;47212;41.326;2.104;2022-07-09T05:59:31;101997.47;;;23.91;54.26
61337;BME280;47212;41.326;2.104;2022-07-09T06:04:33;101996.16;;;23.97;54.40
61337;BME280;47212;41.326;2.104;2022-07-09T06:09:35;101996.50;;;24.04;54.30
61337;BME280;47212;41.326;2.104;2022-07-09T06:14:39;101994.06;;;24.11;54.40
61337;BME280;47212;41.326;2.104;2022-07-09T06:19:41;102007.03;;;24.25;53.99
61337;BME280;47212;41.326;2.104;2022-07-09T06:24:43;102007.59;;;24.35;54.18
61337;BME280;47212;41.326;2.104;2022-07-09T06:29:45;102014.50;;;24.47;53.84
61337;BME280;47212;41.326;2.104;2022-07-09T06:34:47;102011.06;;;24.58;53.45
61337;BME280;47212;41.326;2.104;2022-07-09T06:39:49;102018.09;;;24.73;53.44
61337;BME280;47212;41.326;2.104;2022-07-09T06:44:52;102017.94;;;24.87;53.31
61337;BME280;47212;41.326;2.104;2022-07-09T06:49:57;102017.97;;;25.04;52.73
61337;BME280;47212;41.326;2.104;2022-07-09T06:54:59;102028.44;;;25.24;52.20
61337;BME280;47212;41.326;2.104;2022-07-09T07:00:03;102023.81;;;25.46;52.46
61337;BME280;47212;41.326;2.104;2022-07-09T07:05:06;102029.16;;;25.68;52.09
61337;BME280;47212;41.326;2.104;2022-07-09T07:10:09;102033.66;;;25.90;51.46
61337;BME280;47212;41.326;2.104;2022-07-09T07:15:18;102031.44;;;26.13;50.04
61337;BME280;47212;41.326;2.104;2022-07-09T07:20:20;102020.50;;;26.37;50.29
61337;BME280;47212;41.326;2.104;2022-07-09T07:25:30;102026.91;;;26.58;49.46
61337;BME280;47212;41.326;2.104;2022-07-09T07:30:33;102018.84;;;26.78;48.47
61337;BME280;47212;41.326;2.104;2022-07-09T07:35:35;102021.19;;;26.96;48.00
61337;BME280;47212;41.326;2.104;2022-07-09T07:40:37;102014.78;;;27.17;47.49
61337;BME280;47212;41.326;2.104;2022-07-09T07:45:39;102022.16;;;27.34;46.01
61337;BME280;47212;41.326;2.104;2022-07-09T07:50:42;102015.19;;;27.52;44.89
61337;BME280;47212;41.326;2.104;2022-07-09T07:55:49;102023.41;;;27.69;42.51
61337;BME280;47212;41.326;2.104;2022-07-09T08:01:17;102029.06;;;27.94;42.23
61337;BME280;47212;41.326;2.104;2022-07-09T08:06:30;102018.56;;;28.15;41.18
61337;BME280;47212;41.326;2.104;2022-07-09T08:11:32;102022.06;;;28.36;42.06
61337;BME280;47212;41.326;2.104;2022-07-09T08:16:35;102023.19;;;28.47;40.86
61337;BME280;47212;41.326;2.104;2022-07-09T08:21:37;102011.63;;;28.61;40.71
61337;BME280;47212;41.326;2.104;2022-07-09T08:26:39;102012.41;;;28.74;40.64
61337;BME280;47212;41.326;2.104;2022-07-09T08:31:50;102005.03;;;28.81;40.12
61337;BME280;47212;41.326;2.104;2022-07-09T08:36:52;102015.03;;;28.95;40.65
61337;BME280;47212;41.326;2.104;2022-07-09T08:41:54;102013.72;;;29.04;40.34
61337;BME280;47212;41.326;2.104;2022-07-09T08:47:02;102019.78;;;29.06;43.35
61337;BME280;47212;41.326;2.104;2022-07-09T08:52:05;102026.41;;;28.86;44.30
61337;BME280;47212;41.326;2.104;2022-07-09T08:57:08;102028.31;;;28.70;45.07
61337;BME280;47212;41.326;2.104;2022-07-09T09:02:10;102032.78;;;28.34;46.06
61337;BME280;47212;41.326;2.104;2022-07-09T09:07:17;102032.66;;;28.06;48.08
61337;BME280;47212;41.326;2.104;2022-07-09T09:12:27;102040.13;;;28.02;48.71
61337;BME280;47212;41.326;2.104;2022-07-09T09:17:30;102039.66;;;28.00;49.31
61337;BME280;47212;41.326;2.104;2022-07-09T09:22:44;102037.34;;;28.02;48.62
61337;BME280;47212;41.326;2.104;2022-07-09T09:27:57;102046.66;;;28.18;49.90
61337;BME280;47212;41.326;2.104;2022-07-09T09:33:03;102054.25;;;28.18;51.67
61337;BME280;47212;41.326;2.104;2022-07-09T09:38:10;102050.75;;;28.09;53.35
61337;BME280;47212;41.326;2.104;2022-07-09T09:43:14;102042.81;;;27.99;52.04
61337;BME280;47212;41.326;2.104;2022-07-09T09:48:21;102044.78;;;28.10;51.72
61337;BME280;47212;41.326;2.104;2022-07-09T09:53:25;102037.91;;;28.20;48.90
61337;BME280;47212;41.326;2.104;2022-07-09T09:58:28;102041.19;;;28.34;48.31
61337;BME280;47212;41.326;2.104;2022-07-09T10:03:35;102038.50;;;28.38;47.74
61337;BME280;47212;41.326;2.104;2022-07-09T10:08:41;102038.59;;;28.53;48.73
61337;BME280;47212;41.326;2.104;2022-07-09T10:13:50;102044.19;;;28.53;49.73
61337;BME280;47212;41.326;2.104;2022-07-09T10:18:53;102058.22;;;28.41;49.95
61337;BME280;47212;41.326;2.104;2022-07-09T10:23:55;102046.31;;;28.32;51.49
61337;BME280;47212;41.326;2.104;2022-07-09T10:28:57;102039.53;;;28.45;51.98
61337;BME280;47212;41.326;2.104;2022-07-09T10:34:06;102045.25;;;28.61;53.56
61337;BME280;47212;41.326;2.104;2022-07-09T10:39:13;102041.84;;;28.55;53.68
61337;BME280;47212;41.326;2.104;2022-07-09T10:44:26;102037.16;;;28.60;55.93
61337;BME280;47212;41.326;2.104;2022-07-09T10:49:29;102032.28;;;28.57;56.40
61337;BME280;47212;41.326;2.104;2022-07-09T10:54:32;102045.81;;;28.54;57.95
61337;BME280;47212;41.326;2.104;2022-07-09T10:59:35;102048.03;;;28.49;58.06
61337;BME280;47212;41.326;2.104;2022-07-09T11:04:37;102036.06;;;28.36;57.55
61337;BME280;47212;41.326;2.104;2022-07-09T11:09:39;102034.44;;;28.23;58.19
61337;BME280;47212;41.326;2.104;2022-07-09T11:14:45;102032.31;;;28.08;59.58
61337;BME280;47212;41.326;2.104;2022-07-09T11:19:48;102023.22;;;27.99;58.46
61337;BME280;47212;41.326;2.104;2022-07-09T11:24:51;102015.06;;;27.94;57.60
61337;BME280;47212;41.326;2.104;2022-07-09T11:29:53;102013.44;;;27.92;57.70
61337;BME280;47212;41.326;2.104;2022-07-09T11:34:55;102002.69;;;28.07;57.22
61337;BME280;47212;41.326;2.104;2022-07-09T11:39:58;101997.78;;;28.16;57.39
61337;BME280;47212;41.326;2.104;2022-07-09T11:45:01;101990.78;;;28.22;58.13
61337;BME280;47212;41.326;2.104;2022-07-09T11:50:15;101991.59;;;28.22;58.63
61337;BME280;47212;41.326;2.104;2022-07-09T11:55:27;101984.72;;;28.08;57.03
61337;BME280;47212;41.326;2.104;2022-07-09T12:00:33;101982.28;;;27.94;57.61
61337;BME280;47212;41.326;2.104;2022-07-09T12:05:36;101974.03;;;27.85;57.82
61337;BME280;47212;41.326;2.104;2022-07-09T12:10:39;101966.41;;;27.74;59.03
61337;BME280;47212;41.326;2.104;2022-07-09T12:15:41;101959.44;;;27.68;58.99
61337;BME280;47212;41.326;2.104;2022-07-09T12:20:46;101958.22;;;27.56;59.66
61337;BME280;47212;41.326;2.104;2022-07-09T12:26:38;101955.69;;;27.64;59.24
61337;BME280;47212;41.326;2.104;2022-07-09T12:32:29;101940.44;;;27.85;58.40
61337;BME280;47212;41.326;2.104;2022-07-09T12:38:20;101941.50;;;27.93;58.06
61337;BME280;47212;41.326;2.104;2022-07-09T12:44:13;101931.94;;;27.94;58.05
61337;BME280;47212;41.326;2.104;2022-07-09T12:50:04;101939.47;;;28.06;57.34
61337;BME280;47212;41.326;2.104;2022-07-09T12:55:55;101923.41;;;28.03;58.55
61337;BME280;47212;41.326;2.104;2022-07-09T13:01:04;101930.72;;;28.07;57.48
61337;BME280;47212;41.326;2.104;2022-07-09T13:06:55;101925.13;;;28.07;57.88
61337;BME280;47212;41.326;2.104;2022-07-09T13:11:57;101913.00;;;28.03;57.07
61337;BME280;47212;41.326;2.104;2022-07-09T13:16:59;101904.88;;;27.98;57.65
61337;BME280;47212;41.326;2.104;2022-07-09T13:23:00;101905.78;;;28.02;57.21
61337;BME280;47212;41.326;2.104;2022-07-09T13:28:02;101903.13;;;27.94;57.03
61337;BME280;47212;41.326;2.104;2022-07-09T13:33:04;101903.81;;;27.90;57.03
61337;BME280;47212;41.326;2.104;2022-07-09T13:38:07;101908.50;;;27.86;56.77
61337;BME280;47212;41.326;2.104;2022-07-09T13:43:58;101907.09;;;27.80;56.78
61337;BME280;47212;41.326;2.104;2022-07-09T13:49:53;101896.28;;;27.79;57.43
61337;BME280;47212;41.326;2.104;2022-07-09T13:54:56;101901.38;;;27.89;56.73
61337;BME280;47212;41.326;2.104;2022-07-09T13:59:58;101896.94;;;28.00;57.06
61337;BME280;47212;41.326;2.104;2022-07-09T14:05:03;101897.03;;;28.04;56.80
61337;BME280;47212;41.326;2.104;2022-07-09T14:10:05;101882.81;;;27.97;56.98
61337;BME280;47212;41.326;2.104;2022-07-09T14:15:08;101887.03;;;27.90;56.59
61337;BME280;47212;41.326;2.104;2022-07-09T14:20:20;101885.53;;;27.81;57.07
61337;BME280;47212;41.326;2.104;2022-07-09T14:25:23;101876.44;;;27.72;57.35
61337;BME280;47212;41.326;2.104;2022-07-09T14:30:26;101870.38;;;27.70;57.51
61337;BME280;47212;41.326;2.104;2022-07-09T14:35:29;101865.72;;;27.74;57.80
61337;BME280;47212;41.326;2.104;2022-07-09T14:40:31;101868.03;;;27.72;57.64
61337;BME280;47212;41.326;2.104;2022-07-09T14:45:33;101872.13;;;27.62;57.71
61337;BME280;47212;41.326;2.104;2022-07-09T14:50:35;101862.13;;;27.61;58.04
61337;BME280;47212;41.326;2.104;2022-07-09T14:55:37;101856.75;;;27.68;57.84
61337;BME280;47212;41.326;2.104;2022-07-09T15:00:39;101856.03;;;27.71;57.66
61337;BME280;47212;41.326;2.104;2022-07-09T15:05:42;101849.97;;;27.69;58.41
61337;BME280;47212;41.326;2.104;2022-07-09T15:10:45;101858.38;;;27.69;58.22
61337;BME280;47212;41.326;2.104;2022-07-09T15:15:47;101839.25;;;27.59;58.55
61337;BME280;47212;41.326;2.104;2022-07-09T15:20:49;101835.28;;;27.60;58.45
61337;BME280;47212;41.326;2.104;2022-07-09T15:25:52;101833.44;;;27.64;58.39
61337;BME280;47212;41.326;2.104;2022-07-09T15:30:54;101824.09;;;27.72;57.94
61337;BME280;47212;41.326;2.104;2022-07-09T15:35:56;101832.84;;;27.71;58.26
61337;BME280;47212;41.326;2.104;2022-07-09T15:40:58;101817.13;;;27.66;58.17
61337;BME280;47212;41.326;2.104;2022-07-09T15:46:00;101812.09;;;27.59;58.27
61337;BME280;47212;41.326;2.104;2022-07-09T15:51:03;101811.63;;;27.57;57.69
61337;BME280;47212;41.326;2.104;2022-07-09T15:56:05;101817.56;;;27.56;57.85
61337;BME280;47212;41.326;2.104;2022-07-09T16:01:09;101815.03;;;27.63;57.77
61337;BME280;47212;41.326;2.104;2022-07-09T16:06:11;101809.44;;;27.63;58.43
61337;BME280;47212;41.326;2.104;2022-07-09T16:11:14;101809.75;;;27.74;58.67
61337;BME280;47212;41.326;2.104;2022-07-09T16:16:38;101799.97;;;27.80;58.40
61337;BME280;47212;41.326;2.104;2022-07-09T16:22:29;101798.44;;;27.82;58.44
61337;BME280;47212;41.326;2.104;2022-07-09T16:27:31;101797.28;;;27.83;58.77
61337;BME280;47212;41.326;2.104;2022-07-09T16:32:33;101792.59;;;27.87;58.74
61337;BME280;47212;41.326;2.104;2022-07-09T16:37:36;101779.31;;;27.84;58.51
61337;BME280;47212;41.326;2.104;2022-07-09T16:42:38;101777.25;;;27.81;58.97
61337;BME280;47212;41.326;2.104;2022-07-09T16:47:42;101775.97;;;27.79;59.31
61337;BME280;47212;41.326;2.104;2022-07-09T16:52:44;101778.66;;;27.75;58.90
61337;BME280;47212;41.326;2.104;2022-07-09T16:57:47;101771.19;;;27.67;59.21
61337;BME280;47212;41.326;2.104;2022-07-09T17:02:49;101766.31;;;27.64;59.78
61337;BME280;47212;41.326;2.104;2022-07-09T17:07:51;101768.28;;;27.64;59.66
61337;BME280;47212;41.326;2.104;2022-07-09T17:12:53;101768.84;;;27.69;59.63
61337;BME280;47212;41.326;2.104;2022-07-09T17:17:55;101765.25;;;27.56;59.83
61337;BME280;47212;41.326;2.104;2022-07-09T17:23:04;101768.06;;;27.44;60.26
61337;BME280;47212;41.326;2.104;2022-07-09T17:28:06;101773.78;;;27.36;60.46
61337;BME280;47212;41.326;2.104;2022-07-09T17:33:08;101771.69;;;27.33;60.51
61337;BME280;47212;41.326;2.104;2022-07-09T17:38:11;101775.78;;;27.23;60.93
61337;BME280;47212;41.326;2.104;2022-07-09T17:43:13;101772.88;;;27.19;61.13
61337;BME280;47212;41.326;2.104;2022-07-09T17:48:16;101774.41;;;27.17;61.22
61337;BME280;47212;41.326;2.104;2022-07-09T17:53:18;101787.31;;;27.21;61.62
61337;BME280;47212;41.326;2.104;2022-07-09T17:58:20;101770.91;;;27.20;61.40
61337;BME280;47212;41.326;2.104;2022-07-09T18:03:22;101767.88;;;27.13;61.13
61337;BME280;47212;41.326;2.104;2022-07-09T18:08:24;101775.22;;;27.05;61.97
61337;BME280;47212;41.326;2.104;2022-07-09T18:13:26;101765.28;;;26.95;61.74
61337;BME280;47212;41.326;2.104;2022-07-09T18:18:29;101764.72;;;26.90;61.17
61337;BME280;47212;41.326;2.104;2022-07-09T18:24:21;101762.25;;;26.88;61.18
61337;BME280;47212;41.326;2.104;2022-07-09T18:29:23;101759.78;;;26.87;60.33
61337;BME280;47212;41.326;2.104;2022-07-09T18:34:27;101762.94;;;26.85;60.92
61337;BME280;47212;41.326;2.104;2022-07-09T18:39:30;101767.03;;;26.88;60.03
61337;BME280;47212;41.326;2.104;2022-07-09T18:44:34;101772.63;;;26.88;58.79
61337;BME280;47212;41.326;2.104;2022-07-09T18:49:41;101764.72;;;26.90;58.74
61337;BME280;47212;41.326;2.104;2022-07-09T18:54:43;101771.91;;;26.91;58.35
61337;BME280;47212;41.326;2.104;2022-07-09T18:59:45;101769.13;;;26.91;58.42
61337;BME280;47212;41.326;2.104;2022-07-09T19:04:49;101774.25;;;26.89;58.96
61337;BME280;47212;41.326;2.104;2022-07-09T19:09:51;101774.91;;;26.86;59.22
61337;BME280;47212;41.326;2.104;2022-07-09T19:14:53;101776.69;;;26.90;59.52
61337;BME280;47212;41.326;2.104;2022-07-09T19:19:55;101768.44;;;26.94;59.56
61337;BME280;47212;41.326;2.104;2022-07-09T19:24:57;101776.81;;;26.94;59.81
61337;BME280;47212;41.326;2.104;2022-07-09T19:29:59;101780.06;;;26.96;60.17
61337;BME280;47212;41.326;2.104;2022-07-09T19:35:02;101786.34;;;26.93;60.64
61337;BME280;47212;41.326;2.104;2022-07-09T19:40:06;101785.88;;;26.91;60.76
61337;BME280;47212;41.326;2.104;2022-07-09T19:45:08;101784.47;;;26.85;61.14
61337;BME280;47212;41.326;2.104;2022-07-09T19:50:11;101789.09;;;26.81;61.37
61337;BME280;47212;41.326;2.104;2022-07-09T19:55:13;101798.66;;;26.80;61.67
61337;BME280;47212;41.326;2.104;2022-07-09T20:00:17;101800.28;;;26.81;61.63
61337;BME280;47212;41.326;2.104;2022-07-09T20:05:20;101803.53;;;26.83;61.53
61337;BME280;47212;41.326;2.104;2022-07-09T20:10:22;101798.78;;;26.83;61.80
61337;BME280;47212;41.326;2.104;2022-07-09T20:15:27;101803.06;;;26.81;62.07
61337;BME280;47212;41.326;2.104;2022-07-09T20:20:29;101806.56;;;26.78;61.85
61337;BME280;47212;41.326;2.104;2022-07-09T20:25:34;101814.34;;;26.72;62.28
61337;BME280;47212;41.326;2.104;2022-07-09T20:30:36;101813.19;;;26.73;62.40
61337;BME280;47212;41.326;2.104;2022-07-09T20:35:39;101813.06;;;26.70;62.50
61337;BME280;47212;41.326;2.104;2022-07-09T20:40:43;101812.81;;;26.62;62.60
61337;BME280;47212;41.326;2.104;2022-07-09T20:45:59;101817.00;;;26.56;63.24
61337;BME280;47212;41.326;2.104;2022-07-09T20:51:01;101815.38;;;26.55;63.03
61337;BME280;47212;41.326;2.104;2022-07-09T20:56:04;101815.03;;;26.57;63.09
61337;BME280;47212;41.326;2.104;2022-07-09T21:01:06;101820.25;;;26.58;63.25
61337;BME280;47212;41.326;2.104;2022-07-09T21:06:08;101817.94;;;26.60;63.45
61337;BME280;47212;41.326;2.104;2022-07-09T21:11:10;101821.88;;;26.59;63.65
61337;BME280;47212;41.326;2.104;2022-07-09T21:16:12;101817.00;;;26.56;63.59
61337;BME280;47212;41.326;2.104;2022-07-09T21:21:18;101816.88;;;26.53;63.62
61337;BME280;47212;41.326;2.104;2022-07-09T21:26:23;101816.06;;;26.52;63.46
61337;BME280;47212;41.326;2.104;2022-07-09T21:31:26;101820.47;;;26.53;63.30
61337;BME280;47212;41.326;2.104;2022-07-09T21:36:28;101813.72;;;26.54;63.51
61337;BME280;47212;41.326;2.104;2022-07-09T21:41:30;101811.06;;;26.58;63.28
61337;BME280;47212;41.326;2.104;2022-07-09T21:46:32;101807.47;;;26.57;63.04
61337;BME280;47212;41.326;2.104;2022-07-09T21:51:37;101812.00;;;26.62;62.73
61337;BME280;47212;41.326;2.104;2022-07-09T21:56:39;101802.81;;;26.61;62.41
61337;BME280;47212;41.326;2.104;2022-07-09T22:01:41;101800.25;;;26.56;61.84
61337;BME280;47212;41.326;2.104;2022-07-09T22:06:43;101807.34;;;26.54;61.77
61337;BME280;47212;41.326;2.104;2022-07-09T22:11:45;101804.88;;;26.52;61.76
61337;BME280;47212;41.326;2.104;2022-07-09T22:16:47;101806.03;;;26.51;61.34
61337;BME280;47212;41.326;2.104;2022-07-09T22:21:55;101802.91;;;26.53;60.74
61337;BME280;47212;41.326;2.104;2022-07-09T22:27:02;101799.78;;;26.54;60.72
61337;BME280;47212;41.326;2.104;2022-07-09T22:32:07;101803.38;;;26.55;60.15
61337;BME280;47212;41.326;2.104;2022-07-09T22:37:09;101795.69;;;26.52;59.99
61337;BME280;47212;41.326;2.104;2022-07-09T22:42:11;101794.41;;;26.49;60.24
61337;BME280;47212;41.326;2.104;2022-07-09T22:47:13;101789.97;;;26.48;59.60
61337;BME280;47212;41.326;2.104;2022-07-09T22:52:20;101791.16;;;26.47;60.17
61337;BME280;47212;41.326;2.104;2022-07-09T22:57:23;101779.97;;;26.47;60.42
61337;BME280;47212;41.326;2.104;2022-07-09T23:02:25;101782.31;;;26.45;60.66
61337;BME280;47212;41.326;2.104;2022-07-09T23:07:28;101780.44;;;26.49;60.82
61337;BME280;47212;41.326;2.104;2022-07-09T23:12:49;101774.50;;;26.51;60.76
61337;BME280;47212;41.326;2.104;2022-07-09T23:17:51;101778.00;;;26.48;60.69
61337;BME280;47212;41.326;2.104;2022-07-09T23:22:54;101777.06;;;26.44;60.87
61337;BME280;47212;41.326;2.104;2022-07-09T23:27:56;101771.81;;;26.42;60.77
61337;BME280;47212;41.326;2.104;2022-07-09T23:32:58;101769.72;;;26.39;60.29
61337;BME280;47212;41.326;2.104;2022-07-09T23:38:00;101765.16;;;26.34;59.54
61337;BME280;47212;41.326;2.104;2022-07-09T23:43:03;101768.97;;;26.30;58.00
61337;BME280;47212;41.326;2.104;2022-07-09T23:48:05;101764.75;;;26.24;57.46
61337;BME280;47212;41.326;2.104;2022-07-09T23:53:07;101757.91;;;26.21;56.42
61337;BME280;47212;41.326;2.104;2022-07-09T23:58:09;101756.59;;;26.19;55.87
